Time;durP1;ratioP1;P1;durP2;ratioP2;P2;SDS_P1;SDS_P2;PMS_P1;PMS_P2;Temp;Humidity;BMP_temperature;BMP_pressure;BME280_temperature;BME280_humidity;BME280_pressure;Samples;Min_cycle;Max_cycle;Signal;HPM_P1;HPM_P2
2022/08/29 00:02:04;;;;;;;6.87;2.10;;;;;;;;;;5093118;28;20881;-70
2022/08/29 00:04:31;;;;;;;7.80;2.67;;;;;;;;;;5093219;28;20483;-71
2022/08/29 00:07:00;;;;;;;9.27;2.70;;;;;;;;;;5093122;27;20519;-70
2022/08/29 00:09:27;;;;;;;7.30;2.30;;;;;;;;;;5090490;27;20448;-70
2022/08/29 00:11:54;;;;;;;10.23;3.40;;;;;;;;;;5080996;28;20456;-70
2022/08/29 00:14:21;;;;;;;7.23;2.53;;;;;;;;;;5093035;28;21066;-69
2022/08/29 00:16:59;;;;;;;8.20;4.40;;;;;;;;;;5093078;28;20545;-72
2022/08/29 00:19:27;;;;;;;8.80;2.73;;;;;;;;;;5092308;28;20534;-71
2022/08/29 00:21:54;;;;;;;11.70;2.50;;;;;;;;;;5092408;28;20475;-70
2022/08/29 00:24:23;;;;;;;5.83;2.50;;;;;;;;;;5093627;28;21108;-70
2022/08/29 00:26:50;;;;;;;6.77;2.70;;;;;;;;;;5093265;28;20771;-71
2022/08/29 00:29:17;;;;;;;17.23;3.63;;;;;;;;;;5093568;28;20447;-70
2022/08/29 00:31:49;;;;;;;8.27;3.27;;;;;;;;;;5092872;28;20570;-70
2022/08/29 00:34:17;;;;;;;6.50;1.90;;;;;;;;;;5094384;28;20452;-71
2022/08/29 00:36:44;;;;;;;6.40;2.37;;;;;;;;;;5093469;28;20854;-71
2022/08/29 00:39:11;;;;;;;6.63;2.50;;;;;;;;;;5093711;28;20448;-71
2022/08/29 00:41:39;;;;;;;11.07;3.03;;;;;;;;;;5093804;28;20466;-70
2022/08/29 00:44:06;;;;;;;8.30;3.57;;;;;;;;;;5092680;28;20483;-71
2022/08/29 00:46:46;;;;;;;7.63;2.67;;;;;;;;;;5092816;28;21056;-71
2022/08/29 00:49:16;;;;;;;9.90;2.90;;;;;;;;;;5091900;28;20539;-70
2022/08/29 00:51:48;;;;;;;9.63;3.33;;;;;;;;;;5092409;28;20455;-70
2022/08/29 00:54:18;;;;;;;5.53;2.27;;;;;;;;;;5093016;28;20452;-71
2022/08/29 00:56:46;;;;;;;7.93;1.93;;;;;;;;;;5092810;28;20730;-70
2022/08/29 00:59:15;;;;;;;11.03;2.73;;;;;;;;;;5093215;28;20447;-70
2022/08/29 01:01:42;;;;;;;9.13;2.90;;;;;;;;;;5093386;28;20608;-70
2022/08/29 01:04:10;;;;;;;11.40;3.20;;;;;;;;;;5093009;28;20524;-70
2022/08/29 01:06:37;;;;;;;13.70;3.87;;;;;;;;;;5092471;28;20455;-70
2022/08/29 01:09:05;;;;;;;8.67;2.47;;;;;;;;;;5093202;28;20456;-70
2022/08/29 01:14:19;;;;;;;4.83;2.50;;;;;;;;;;5093339;27;20453;-70
2022/08/29 01:16:47;;;;;;;7.47;2.77;;;;;;;;;;5094092;27;20505;-70
2022/08/29 01:19:20;;;;;;;10.77;2.53;;;;;;;;;;5093129;27;20810;-70
2022/08/29 01:21:50;;;;;;;8.83;2.37;;;;;;;;;;5086165;27;20463;-70
2022/08/29 01:24:29;;;;;;;7.10;2.53;;;;;;;;;;5072404;28;20503;-70
2022/08/29 01:26:56;;;;;;;5.80;2.73;;;;;;;;;;5072260;28;20548;-70
2022/08/29 01:29:24;;;;;;;13.73;3.00;;;;;;;;;;5072664;28;20877;-70
2022/08/29 01:31:51;;;;;;;6.07;2.47;;;;;;;;;;5089533;28;20586;-70
2022/08/29 01:34:19;;;;;;;10.60;2.50;;;;;;;;;;5072274;28;20774;-70
2022/08/29 01:36:53;;;;;;;5.17;2.73;;;;;;;;;;5086089;28;20586;-70
2022/08/29 01:39:25;;;;;;;13.10;3.00;;;;;;;;;;5093396;28;20459;-70
2022/08/29 01:41:53;;;;;;;13.33;2.43;;;;;;;;;;5091847;28;20450;-70
2022/08/29 01:44:21;;;;;;;7.83;3.00;;;;;;;;;;5093101;27;20495;-70
2022/08/29 01:46:57;;;;;;;9.57;3.97;;;;;;;;;;5091691;27;20444;-70
2022/08/29 01:49:25;;;;;;;7.10;2.53;;;;;;;;;;5092391;28;20447;-70
2022/08/29 01:51:52;;;;;;;6.93;2.93;;;;;;;;;;5092337;28;20451;-70
2022/08/29 01:54:19;;;;;;;3.23;1.90;;;;;;;;;;5092520;28;20529;-70
2022/08/29 01:56:48;;;;;;;10.77;3.40;;;;;;;;;;5091790;28;20436;-70
2022/08/29 01:59:17;;;;;;;8.20;3.00;;;;;;;;;;5092551;28;20457;-70
2022/08/29 02:01:47;;;;;;;9.87;3.07;;;;;;;;;;5094889;28;20888;-70
2022/08/29 02:04:15;;;;;;;9.40;3.30;;;;;;;;;;5082155;28;20579;-70
2022/08/29 02:06:43;;;;;;;12.87;3.60;;;;;;;;;;5095047;28;20493;-70
2022/08/29 02:09:10;;;;;;;7.27;2.83;;;;;;;;;;5096051;28;20490;-69
2022/08/29 02:11:38;;;;;;;5.70;3.10;;;;;;;;;;5095544;28;20770;-70
2022/08/29 02:14:06;;;;;;;9.93;3.50;;;;;;;;;;5094885;28;20471;-70
2022/08/29 02:16:34;;;;;;;5.80;2.73;;;;;;;;;;5092537;28;20530;-70
2022/08/29 02:19:01;;;;;;;12.13;3.50;;;;;;;;;;5095483;28;20459;-70
2022/08/29 02:21:29;;;;;;;8.73;2.80;;;;;;;;;;5096337;28;20458;-70
2022/08/29 02:23:57;;;;;;;12.73;3.30;;;;;;;;;;5095732;28;20487;-70
2022/08/29 02:26:24;;;;;;;8.57;2.47;;;;;;;;;;5094786;28;20878;-70
2022/08/29 02:28:51;;;;;;;5.03;2.93;;;;;;;;;;5095240;28;21110;-71
2022/08/29 02:31:18;;;;;;;12.90;3.23;;;;;;;;;;5095366;28;20452;-71
2022/08/29 02:33:46;;;;;;;6.57;2.43;;;;;;;;;;5095347;28;20464;-71
2022/08/29 02:36:13;;;;;;;12.30;3.30;;;;;;;;;;5094935;28;20882;-71
2022/08/29 02:38:41;;;;;;;9.03;2.57;;;;;;;;;;5096155;27;20738;-71
2022/08/29 02:41:08;;;;;;;8.10;3.00;;;;;;;;;;5096345;27;20497;-71
2022/08/29 02:43:38;;;;;;;6.23;2.90;;;;;;;;;;5081038;28;20549;-71
2022/08/29 02:46:05;;;;;;;8.80;3.17;;;;;;;;;;5088693;28;20513;-70
2022/08/29 02:48:32;;;;;;;6.70;2.83;;;;;;;;;;5094474;28;20474;-70
2022/08/29 02:51:00;;;;;;;11.73;3.63;;;;;;;;;;5094476;28;20513;-71
2022/08/29 02:53:30;;;;;;;12.53;3.67;;;;;;;;;;5090318;28;20454;-70
2022/08/29 02:55:58;;;;;;;8.20;3.13;;;;;;;;;;5094234;28;20482;-71
2022/08/29 02:58:25;;;;;;;8.97;2.63;;;;;;;;;;5094667;28;20451;-71
2022/08/29 03:00:53;;;;;;;11.43;2.93;;;;;;;;;;5074399;28;20463;-71
2022/08/29 03:03:20;;;;;;;7.57;3.37;;;;;;;;;;5074406;28;20556;-71
2022/08/29 03:05:47;;;;;;;9.40;2.83;;;;;;;;;;5087282;28;20444;-70
2022/08/29 03:08:15;;;;;;;10.50;2.80;;;;;;;;;;5092062;28;20451;-71
2022/08/29 03:10:43;;;;;;;6.07;2.67;;;;;;;;;;5085714;28;20456;-71
2022/08/29 03:13:10;;;;;;;9.30;3.07;;;;;;;;;;5092602;28;20455;-71
2022/08/29 03:15:37;;;;;;;8.73;3.20;;;;;;;;;;5095153;27;20480;-70
2022/08/29 03:18:04;;;;;;;12.17;4.13;;;;;;;;;;5094296;27;20499;-71
2022/08/29 03:20:33;;;;;;;8.90;3.30;;;;;;;;;;5076727;28;20456;-71
2022/08/29 03:23:01;;;;;;;9.00;2.90;;;;;;;;;;5074093;28;20492;-71
2022/08/29 03:25:29;;;;;;;14.20;3.37;;;;;;;;;;5085686;28;20458;-71
2022/08/29 03:27:58;;;;;;;15.60;3.57;;;;;;;;;;5090924;28;20444;-71
2022/08/29 03:30:27;;;;;;;7.43;2.60;;;;;;;;;;5093653;28;20486;-70
2022/08/29 03:32:55;;;;;;;5.83;2.93;;;;;;;;;;5093844;28;20500;-71
2022/08/29 03:35:22;;;;;;;10.50;4.00;;;;;;;;;;5093770;28;20475;-71
2022/08/29 03:37:49;;;;;;;6.43;3.03;;;;;;;;;;5093361;28;20737;-70
2022/08/29 03:40:18;;;;;;;9.10;3.07;;;;;;;;;;5094562;28;20460;-71
2022/08/29 03:42:46;;;;;;;12.63;3.40;;;;;;;;;;5093078;28;20444;-70
2022/08/29 03:45:14;;;;;;;9.73;3.43;;;;;;;;;;5093860;28;20980;-71
2022/08/29 03:47:42;;;;;;;9.43;3.07;;;;;;;;;;5094065;28;20478;-71
2022/08/29 03:50:09;;;;;;;7.23;2.80;;;;;;;;;;5092858;28;20467;-71
2022/08/29 03:52:37;;;;;;;6.60;2.77;;;;;;;;;;5093581;27;20443;-71
2022/08/29 03:55:06;;;;;;;10.93;3.23;;;;;;;;;;5094116;27;20457;-71
2022/08/29 03:57:33;;;;;;;9.30;2.80;;;;;;;;;;5095432;27;20458;-71
2022/08/29 04:00:08;;;;;;;13.30;3.57;;;;;;;;;;5092630;28;20523;-71
2022/08/29 04:02:36;;;;;;;10.20;3.10;;;;;;;;;;5093505;28;20809;-70
2022/08/29 04:05:09;;;;;;;10.63;3.50;;;;;;;;;;5092549;28;20554;-70
2022/08/29 04:07:40;;;;;;;15.20;3.53;;;;;;;;;;5092730;28;20444;-71
2022/08/29 04:10:12;;;;;;;7.90;3.90;;;;;;;;;;5093022;28;20507;-71
2022/08/29 04:12:39;;;;;;;10.07;3.70;;;;;;;;;;5092321;27;20440;-71
2022/08/29 04:15:15;;;;;;;10.37;4.17;;;;;;;;;;5094280;27;20463;-71
2022/08/29 04:17:43;;;;;;;11.63;3.63;;;;;;;;;;5091685;28;20570;-71
2022/08/29 04:20:11;;;;;;;9.40;4.13;;;;;;;;;;5093381;28;20448;-70
2022/08/29 04:22:40;;;;;;;9.60;3.43;;;;;;;;;;5091949;28;20560;-71
2022/08/29 04:25:08;;;;;;;6.13;3.07;;;;;;;;;;5091797;28;20486;-71
2022/08/29 04:27:36;;;;;;;12.17;3.53;;;;;;;;;;5092518;27;20683;-70
2022/08/29 04:30:04;;;;;;;10.70;3.80;;;;;;;;;;5092613;27;20497;-70
2022/08/29 04:32:41;;;;;;;13.97;5.73;;;;;;;;;;5091648;28;20554;-70
2022/08/29 04:35:11;;;;;;;9.03;3.40;;;;;;;;;;5091576;28;20444;-70
2022/08/29 04:37:39;;;;;;;9.60;3.50;;;;;;;;;;5092141;28;20454;-71
2022/08/29 04:40:07;;;;;;;8.40;4.13;;;;;;;;;;5092395;28;20896;-71
2022/08/29 04:42:35;;;;;;;9.40;3.10;;;;;;;;;;5093054;27;20456;-70
2022/08/29 04:45:03;;;;;;;10.10;4.80;;;;;;;;;;5092880;27;21010;-71
2022/08/29 04:47:30;;;;;;;14.67;4.33;;;;;;;;;;5092017;27;20459;-71
2022/08/29 04:49:58;;;;;;;11.73;4.00;;;;;;;;;;5093729;27;20459;-70
2022/08/29 04:52:27;;;;;;;10.03;4.40;;;;;;;;;;5091869;27;20493;-71
2022/08/29 04:54:54;;;;;;;8.00;4.73;;;;;;;;;;5091518;28;20452;-70
2022/08/29 04:57:22;;;;;;;11.07;3.40;;;;;;;;;;5092183;28;20486;-71
2022/08/29 04:59:53;;;;;;;10.90;4.40;;;;;;;;;;5091643;28;20542;-71
2022/08/29 05:02:20;;;;;;;6.87;4.00;;;;;;;;;;5089188;28;20471;-70
2022/08/29 05:04:51;;;;;;;15.20;3.80;;;;;;;;;;5091861;28;20555;-71
2022/08/29 05:07:20;;;;;;;9.90;5.07;;;;;;;;;;5092243;28;20554;-71
2022/08/29 05:09:47;;;;;;;9.37;4.20;;;;;;;;;;5090477;28;21007;-71
2022/08/29 05:12:14;;;;;;;17.10;4.53;;;;;;;;;;5090529;28;20467;-71
2022/08/29 05:14:41;;;;;;;11.80;4.47;;;;;;;;;;5090006;28;21097;-70
2022/08/29 05:17:09;;;;;;;8.83;3.87;;;;;;;;;;5087582;28;20531;-71
2022/08/29 05:19:42;;;;;;;13.27;4.40;;;;;;;;;;5079544;28;20456;-71
2022/08/29 05:22:09;;;;;;;12.10;4.70;;;;;;;;;;5088720;28;20569;-71
2022/08/29 05:24:37;;;;;;;10.30;4.50;;;;;;;;;;5089554;28;20487;-71
2022/08/29 05:27:10;;;;;;;12.47;4.60;;;;;;;;;;5089451;28;20459;-71
2022/08/29 05:29:40;;;;;;;9.27;4.23;;;;;;;;;;5087610;28;20455;-71
2022/08/29 05:32:08;;;;;;;10.73;4.27;;;;;;;;;;5087842;28;20500;-71
2022/08/29 05:34:39;;;;;;;10.10;4.30;;;;;;;;;;5090029;28;20456;-71
2022/08/29 05:37:08;;;;;;;11.70;4.73;;;;;;;;;;5092106;28;20505;-71
2022/08/29 05:39:36;;;;;;;7.60;4.20;;;;;;;;;;5089482;28;21073;-71
2022/08/29 05:42:04;;;;;;;11.60;5.03;;;;;;;;;;5090191;28;20451;-71
2022/08/29 05:44:32;;;;;;;12.13;4.77;;;;;;;;;;5071157;28;20539;-72
2022/08/29 05:47:02;;;;;;;12.50;5.07;;;;;;;;;;5078252;28;20472;-73
2022/08/29 05:49:29;;;;;;;9.30;4.90;;;;;;;;;;5090866;28;20440;-71
2022/08/29 05:51:56;;;;;;;9.90;5.00;;;;;;;;;;5087793;28;20460;-72
2022/08/29 05:54:24;;;;;;;8.73;3.87;;;;;;;;;;5087008;28;20632;-71
2022/08/29 05:56:51;;;;;;;14.33;6.13;;;;;;;;;;5091865;28;20754;-72
2022/08/29 05:59:21;;;;;;;12.67;4.67;;;;;;;;;;5091240;28;20443;-72
2022/08/29 06:01:48;;;;;;;9.40;4.60;;;;;;;;;;5091927;28;20541;-71
2022/08/29 06:04:17;;;;;;;12.17;5.20;;;;;;;;;;5092501;28;20635;-72
2022/08/29 06:06:45;;;;;;;12.93;4.83;;;;;;;;;;5091087;28;20939;-72
2022/08/29 06:09:14;;;;;;;7.93;4.10;;;;;;;;;;5092251;28;20456;-73
2022/08/29 06:11:47;;;;;;;10.23;4.40;;;;;;;;;;5091221;28;20636;-72
2022/08/29 06:14:14;;;;;;;14.33;4.83;;;;;;;;;;5091828;28;20451;-72
2022/08/29 06:16:43;;;;;;;10.43;4.20;;;;;;;;;;5091628;28;20494;-71
2022/08/29 06:19:11;;;;;;;11.30;5.07;;;;;;;;;;5090880;28;20892;-72
2022/08/29 06:21:39;;;;;;;12.07;5.43;;;;;;;;;;5090203;28;20463;-72
2022/08/29 06:24:11;;;;;;;13.90;4.70;;;;;;;;;;5088346;28;20496;-73
2022/08/29 06:26:38;;;;;;;7.17;4.60;;;;;;;;;;5071478;28;21075;-72
2022/08/29 06:29:06;;;;;;;9.33;5.00;;;;;;;;;;5071096;28;20460;-72
2022/08/29 06:31:34;;;;;;;10.00;5.20;;;;;;;;;;5074091;28;20570;-72
2022/08/29 06:34:03;;;;;;;18.73;5.93;;;;;;;;;;5090501;28;20464;-72
2022/08/29 06:36:31;;;;;;;16.30;5.70;;;;;;;;;;5071621;28;20475;-72
2022/08/29 06:38:58;;;;;;;9.07;5.20;;;;;;;;;;5083789;28;20913;-72
2022/08/29 06:41:26;;;;;;;10.10;5.00;;;;;;;;;;5092083;28;20448;-71
2022/08/29 06:43:55;;;;;;;9.50;5.80;;;;;;;;;;5091767;28;20807;-71
2022/08/29 06:46:23;;;;;;;10.83;4.67;;;;;;;;;;5089571;28;20456;-72
2022/08/29 06:48:51;;;;;;;9.53;5.57;;;;;;;;;;5090609;28;20864;-72
2022/08/29 06:51:19;;;;;;;10.33;5.37;;;;;;;;;;5090833;28;20467;-72
2022/08/29 06:53:46;;;;;;;12.70;5.70;;;;;;;;;;5093442;28;20447;-71
2022/08/29 06:56:14;;;;;;;7.83;5.80;;;;;;;;;;5085652;28;20487;-71
2022/08/29 06:58:42;;;;;;;12.90;6.60;;;;;;;;;;5092741;28;20757;-72
2022/08/29 07:01:14;;;;;;;13.80;6.47;;;;;;;;;;5092119;28;21026;-72
2022/08/29 07:03:42;;;;;;;12.53;7.33;;;;;;;;;;5091363;28;20475;-71
2022/08/29 07:06:11;;;;;;;14.53;5.97;;;;;;;;;;5091357;28;20554;-72
2022/08/29 07:08:40;;;;;;;11.83;7.07;;;;;;;;;;5090737;28;20517;-72
2022/08/29 07:11:08;;;;;;;14.83;6.80;;;;;;;;;;5088551;28;20783;-72
2022/08/29 07:13:35;;;;;;;11.67;6.57;;;;;;;;;;5090841;28;20458;-71
2022/08/29 07:16:03;;;;;;;6.80;5.43;;;;;;;;;;5089634;28;20475;-72
2022/08/29 07:18:30;;;;;;;9.57;5.07;;;;;;;;;;5090174;28;20977;-72
2022/08/29 07:20:58;;;;;;;9.50;5.37;;;;;;;;;;5090841;28;20463;-71
2022/08/29 07:23:25;;;;;;;7.80;5.27;;;;;;;;;;5090304;28;20502;-71
2022/08/29 07:25:55;;;;;;;6.90;4.47;;;;;;;;;;5081587;28;20456;-72
2022/08/29 07:28:24;;;;;;;8.10;4.60;;;;;;;;;;5080790;28;20495;-71
2022/08/29 07:30:51;;;;;;;9.93;4.70;;;;;;;;;;5079965;28;21013;-71
2022/08/29 07:33:18;;;;;;;11.93;4.50;;;;;;;;;;5082285;28;20460;-70
2022/08/29 07:35:46;;;;;;;4.80;3.70;;;;;;;;;;5082157;28;21027;-70
2022/08/29 07:38:13;;;;;;;7.10;3.20;;;;;;;;;;5089245;28;20451;-71
2022/08/29 07:40:40;;;;;;;5.40;3.93;;;;;;;;;;5085401;28;20471;-72
2022/08/29 07:43:11;;;;;;;6.30;4.87;;;;;;;;;;5089126;28;20566;-72
2022/08/29 07:45:41;;;;;;;7.63;5.70;;;;;;;;;;5081051;28;20473;-72
2022/08/29 07:48:10;;;;;;;9.90;6.30;;;;;;;;;;5087693;28;20456;-72
2022/08/29 07:50:47;;;;;;;9.27;6.03;;;;;;;;;;5085540;28;20510;-71
2022/08/29 07:53:18;;;;;;;8.17;6.00;;;;;;;;;;5080874;28;20455;-70
2022/08/29 07:55:47;;;;;;;8.77;6.40;;;;;;;;;;5090466;28;21099;-72
2022/08/29 07:58:16;;;;;;;6.20;5.23;;;;;;;;;;5086481;28;20555;-71
2022/08/29 08:00:44;;;;;;;7.47;5.70;;;;;;;;;;5091796;28;20452;-71
2022/08/29 08:03:14;;;;;;;7.63;5.10;;;;;;;;;;5089301;28;20481;-71
2022/08/29 08:05:42;;;;;;;4.90;4.20;;;;;;;;;;5089921;27;20476;-71
2022/08/29 08:08:14;;;;;;;4.33;3.93;;;;;;;;;;5087896;28;20494;-71
2022/08/29 08:10:45;;;;;;;5.00;4.40;;;;;;;;;;5077566;28;20462;-71
2022/08/29 08:13:13;;;;;;;3.70;2.80;;;;;;;;;;5091211;28;20757;-71
2022/08/29 08:15:41;;;;;;;5.20;3.90;;;;;;;;;;5085310;28;20558;-71
2022/08/29 08:18:13;;;;;;;6.07;3.00;;;;;;;;;;5084218;28;20871;-72
2022/08/29 08:20:47;;;;;;;6.03;2.97;;;;;;;;;;5088921;28;20559;-71
2022/08/29 08:23:15;;;;;;;3.93;3.33;;;;;;;;;;5083161;28;20471;-71
2022/08/29 08:25:42;;;;;;;5.27;3.43;;;;;;;;;;5089962;27;20722;-70
2022/08/29 08:28:10;;;;;;;4.33;2.67;;;;;;;;;;5087004;28;20443;-71
2022/08/29 08:30:37;;;;;;;2.83;2.37;;;;;;;;;;5090034;28;20457;-70
2022/08/29 08:33:05;;;;;;;3.67;2.40;;;;;;;;;;5090290;28;20845;-70
2022/08/29 08:35:35;;;;;;;5.57;2.70;;;;;;;;;;5090418;28;20460;-71
2022/08/29 08:38:02;;;;;;;2.70;2.00;;;;;;;;;;5079109;28;20487;-70
2022/08/29 08:40:31;;;;;;;2.50;2.00;;;;;;;;;;5085588;28;20593;-71
2022/08/29 08:43:00;;;;;;;6.13;1.90;;;;;;;;;;5088463;28;20537;-71
2022/08/29 08:45:30;;;;;;;5.83;1.93;;;;;;;;;;5088162;28;20487;-71
2022/08/29 08:48:02;;;;;;;4.03;2.23;;;;;;;;;;5085798;28;20444;-71
2022/08/29 08:50:35;;;;;;;4.27;2.90;;;;;;;;;;5089978;28;20464;-71
2022/08/29 08:53:13;;;;;;;4.03;1.47;;;;;;;;;;5088125;28;20463;-70
2022/08/29 08:55:42;;;;;;;2.93;1.47;;;;;;;;;;5082420;28;20467;-71
2022/08/29 08:58:12;;;;;;;3.17;1.70;;;;;;;;;;5090594;28;20444;-70
2022/08/29 09:00:43;;;;;;;3.70;1.57;;;;;;;;;;5088335;28;20464;-70
2022/08/29 09:03:16;;;;;;;5.17;1.67;;;;;;;;;;5087245;28;20463;-72
2022/08/29 09:05:53;;;;;;;3.07;2.17;;;;;;;;;;5083643;28;20750;-72
2022/08/29 09:08:27;;;;;;;5.20;3.20;;;;;;;;;;5090711;28;20765;-72
2022/08/29 09:10:57;;;;;;;3.60;2.00;;;;;;;;;;5086461;28;20472;-72
2022/08/29 09:13:35;;;;;;;2.60;1.57;;;;;;;;;;5093104;28;20460;-71
2022/08/29 09:16:06;;;;;;;2.17;1.20;;;;;;;;;;5093830;28;20468;-70
2022/08/29 09:18:35;;;;;;;2.10;1.00;;;;;;;;;;5089475;28;20460;-70
2022/08/29 09:21:04;;;;;;;2.47;1.40;;;;;;;;;;5090019;28;20604;-71
2022/08/29 09:23:45;;;;;;;2.13;1.27;;;;;;;;;;5074771;28;20921;-71
2022/08/29 09:26:19;;;;;;;2.60;1.80;;;;;;;;;;5080978;28;20876;-71
2022/08/29 09:28:50;;;;;;;7.00;1.97;;;;;;;;;;5090960;28;20539;-70
2022/08/29 09:31:19;;;;;;;3.67;2.47;;;;;;;;;;5091010;28;20467;-70
2022/08/29 09:33:48;;;;;;;2.93;2.60;;;;;;;;;;5089818;28;20525;-71
2022/08/29 09:36:32;;;;;;;5.63;2.67;;;;;;;;;;5092598;28;20931;-73
2022/08/29 09:39:10;;;;;;;2.27;1.50;;;;;;;;;;5091526;28;20456;-72
2022/08/29 09:41:39;;;;;;;2.37;1.70;;;;;;;;;;5091095;28;20467;-72
2022/08/29 09:44:08;;;;;;;3.60;2.40;;;;;;;;;;5090201;28;20479;-70
2022/08/29 09:46:38;;;;;;;2.80;1.67;;;;;;;;;;5091808;28;20458;-70
2022/08/29 09:49:18;;;;;;;2.20;1.43;;;;;;;;;;5091176;28;20938;-72
2022/08/29 09:51:49;;;;;;;2.47;1.43;;;;;;;;;;5091889;28;20471;-72
2022/08/29 09:54:18;;;;;;;4.50;1.77;;;;;;;;;;5091130;28;20451;-72
2022/08/29 09:56:57;;;;;;;3.50;1.70;;;;;;;;;;5092290;28;20474;-71
2022/08/29 09:59:26;;;;;;;3.37;1.57;;;;;;;;;;5088491;28;20498;-71
2022/08/29 10:02:19;;;;;;;3.03;1.97;;;;;;;;;;5086544;28;20484;-71
2022/08/29 10:04:47;;;;;;;2.27;1.17;;;;;;;;;;5090292;28;20482;-72
2022/08/29 10:07:17;;;;;;;2.60;1.33;;;;;;;;;;5084007;28;20447;-71
2022/08/29 10:09:59;;;;;;;2.00;1.10;;;;;;;;;;5085260;28;20486;-72
2022/08/29 10:12:39;;;;;;;3.03;1.57;;;;;;;;;;5088073;28;21109;-71
2022/08/29 10:15:13;;;;;;;3.13;1.90;;;;;;;;;;5089371;28;20608;-73
2022/08/29 10:20:35;;;;;;;3.63;1.63;;;;;;;;;;5083921;28;20584;-72
2022/08/29 10:23:08;;;;;;;1.90;1.10;;;;;;;;;;5078394;28;20473;-73
2022/08/29 10:28:51;;;;;;;4.97;1.50;;;;;;;;;;5082739;28;20478;-74
2022/08/29 10:31:20;;;;;;;3.00;1.40;;;;;;;;;;5089684;28;20457;-73
2022/08/29 10:33:56;;;;;;;9.40;3.60;;;;;;;;;;5086864;28;20938;-73
2022/08/29 10:36:28;;;;;;;1.97;1.37;;;;;;;;;;5081476;27;20467;-73
2022/08/29 10:39:15;;;;;;;2.70;1.40;;;;;;;;;;5081713;28;20479;-73
2022/08/29 10:41:46;;;;;;;2.00;1.23;;;;;;;;;;5087728;28;20764;-72
2022/08/29 10:44:22;;;;;;;3.20;1.63;;;;;;;;;;5079104;28;20602;-72
2022/08/29 10:47:02;;;;;;;3.80;1.30;;;;;;;;;;5086658;28;20470;-73
2022/08/29 10:49:36;;;;;;;4.57;1.30;;;;;;;;;;5086070;28;20452;-73
2022/08/29 10:52:07;;;;;;;1.90;1.13;;;;;;;;;;5075298;28;20529;-73
2022/08/29 10:54:41;;;;;;;2.30;1.10;;;;;;;;;;5083795;28;20459;-73
2022/08/29 10:57:10;;;;;;;2.30;1.30;;;;;;;;;;5088510;28;20707;-72
2022/08/29 10:59:50;;;;;;;2.00;1.10;;;;;;;;;;5091154;28;20466;-71
2022/08/29 11:02:27;;;;;;;2.60;1.03;;;;;;;;;;5078857;28;20781;-71
2022/08/29 11:05:04;;;;;;;2.50;1.40;;;;;;;;;;5087214;28;20575;-71
2022/08/29 11:07:36;;;;;;;2.40;1.40;;;;;;;;;;5073432;28;20471;-71
2022/08/29 11:10:07;;;;;;;1.90;1.00;;;;;;;;;;5088257;28;20468;-71
2022/08/29 11:12:39;;;;;;;3.20;1.00;;;;;;;;;;5082046;28;20522;-72
2022/08/29 11:15:09;;;;;;;2.60;1.10;;;;;;;;;;5088589;28;20466;-71
2022/08/29 11:17:39;;;;;;;3.00;1.40;;;;;;;;;;5083356;28;20464;-72
2022/08/29 11:20:10;;;;;;;3.40;1.00;;;;;;;;;;5086036;28;20471;-73
2022/08/29 11:22:40;;;;;;;2.57;1.60;;;;;;;;;;5084180;28;20504;-73
2022/08/29 11:25:10;;;;;;;2.30;1.13;;;;;;;;;;5081390;28;20481;-72
2022/08/29 11:27:44;;;;;;;2.50;1.27;;;;;;;;;;5077846;28;20530;-72
2022/08/29 11:30:18;;;;;;;2.23;1.70;;;;;;;;;;5078092;28;20873;-71
2022/08/29 11:32:51;;;;;;;2.73;1.67;;;;;;;;;;5081145;28;20555;-71
2022/08/29 11:35:21;;;;;;;2.20;1.37;;;;;;;;;;5086316;28;20501;-71
2022/08/29 11:38:03;;;;;;;2.23;1.20;;;;;;;;;;5087251;28;20900;-71
2022/08/29 11:40:43;;;;;;;3.13;1.20;;;;;;;;;;5085632;28;22318;-71
2022/08/29 11:43:12;;;;;;;4.90;1.47;;;;;;;;;;5085489;28;20463;-72
2022/08/29 11:45:42;;;;;;;2.73;1.40;;;;;;;;;;5088417;28;20483;-72
2022/08/29 11:48:21;;;;;;;4.37;2.57;;;;;;;;;;5086969;28;20497;-72
2022/08/29 11:50:50;;;;;;;4.03;2.93;;;;;;;;;;5080432;28;20900;-72
2022/08/29 11:53:32;;;;;;;4.23;2.23;;;;;;;;;;5086142;28;20479;-71
2022/08/29 11:56:18;;;;;;;2.83;1.47;;;;;;;;;;5081344;28;20466;-72
2022/08/29 11:58:49;;;;;;;4.23;1.80;;;;;;;;;;5085801;28;21017;-72
2022/08/29 12:01:31;;;;;;;2.53;1.47;;;;;;;;;;5086167;28;20456;-71
2022/08/29 12:03:59;;;;;;;2.47;1.57;;;;;;;;;;5089867;28;20483;-72
2022/08/29 12:06:33;;;;;;;6.87;1.47;;;;;;;;;;5082772;28;20882;-71
2022/08/29 12:09:07;;;;;;;3.60;2.27;;;;;;;;;;5079551;28;20490;-72
2022/08/29 12:11:53;;;;;;;2.43;1.20;;;;;;;;;;5085426;28;20483;-71
2022/08/29 12:14:35;;;;;;;3.53;1.50;;;;;;;;;;5081660;28;20936;-72
2022/08/29 12:17:06;;;;;;;2.67;1.30;;;;;;;;;;5082126;28;20470;-71
2022/08/29 12:19:47;;;;;;;2.40;1.40;;;;;;;;;;5084590;28;20459;-72
2022/08/29 12:22:34;;;;;;;2.40;1.10;;;;;;;;;;5082585;28;20958;-72
2022/08/29 12:25:23;;;;;;;2.80;1.50;;;;;;;;;;5088911;28;20587;-71
2022/08/29 12:28:01;;;;;;;3.53;1.00;;;;;;;;;;5086799;27;20554;-72
2022/08/29 12:30:31;;;;;;;5.17;1.23;;;;;;;;;;5081974;28;20464;-72
2022/08/29 12:33:03;;;;;;;2.17;0.93;;;;;;;;;;5082886;28;20524;-72
2022/08/29 12:35:36;;;;;;;2.37;0.90;;;;;;;;;;5088549;28;20456;-71
2022/08/29 12:38:21;;;;;;;2.40;0.90;;;;;;;;;;5087300;28;20567;-72
2022/08/29 12:40:57;;;;;;;2.90;0.90;;;;;;;;;;5079487;28;20576;-71
2022/08/29 12:43:32;;;;;;;2.83;0.80;;;;;;;;;;5087473;28;20467;-72
2022/08/29 12:46:01;;;;;;;2.90;0.90;;;;;;;;;;5087415;28;20455;-71
2022/08/29 12:48:32;;;;;;;2.63;0.77;;;;;;;;;;5070182;28;20468;-72
2022/08/29 12:50:59;;;;;;;2.27;1.07;;;;;;;;;;5068935;28;20444;-72
2022/08/29 12:53:28;;;;;;;2.20;1.03;;;;;;;;;;5069245;28;20554;-72
2022/08/29 12:55:57;;;;;;;2.97;1.20;;;;;;;;;;5082219;28;20464;-71
2022/08/29 12:58:36;;;;;;;2.93;1.30;;;;;;;;;;5087718;28;20455;-73
2022/08/29 13:01:12;;;;;;;2.27;0.67;;;;;;;;;;5089326;28;20462;-72
2022/08/29 13:03:39;;;;;;;1.80;0.80;;;;;;;;;;5080254;28;20521;-72
2022/08/29 13:06:08;;;;;;;5.57;2.77;;;;;;;;;;5078563;28;20773;-71
2022/08/29 13:08:36;;;;;;;1.50;0.70;;;;;;;;;;5084821;28;20533;-71
2022/08/29 13:11:04;;;;;;;1.57;0.77;;;;;;;;;;5084755;28;20466;-72
2022/08/29 13:13:32;;;;;;;2.03;0.83;;;;;;;;;;5087582;28;20845;-71
2022/08/29 13:16:00;;;;;;;1.70;0.70;;;;;;;;;;5087027;28;20468;-71
2022/08/29 13:18:28;;;;;;;1.57;0.70;;;;;;;;;;5087076;28;20520;-72
2022/08/29 13:21:12;;;;;;;4.77;0.93;;;;;;;;;;5090373;28;20546;-71
2022/08/29 13:23:44;;;;;;;1.60;0.70;;;;;;;;;;5086754;28;20537;-71
2022/08/29 13:26:20;;;;;;;4.13;0.90;;;;;;;;;;5069781;28;20448;-71
2022/08/29 13:28:49;;;;;;;1.83;0.77;;;;;;;;;;5087718;28;20463;-71
2022/08/29 13:31:17;;;;;;;1.80;0.87;;;;;;;;;;5086177;28;20793;-71
2022/08/29 13:34:04;;;;;;;3.50;0.90;;;;;;;;;;5084162;28;20464;-71
2022/08/29 13:36:43;;;;;;;4.10;1.03;;;;;;;;;;5078897;28;20464;-72
2022/08/29 13:39:25;;;;;;;2.90;0.80;;;;;;;;;;5084296;28;20468;-71
2022/08/29 13:42:06;;;;;;;1.70;0.70;;;;;;;;;;5084567;28;20512;-71
2022/08/29 13:44:35;;;;;;;1.67;0.70;;;;;;;;;;5078735;28;20483;-72
2022/08/29 13:47:03;;;;;;;1.70;0.80;;;;;;;;;;5086347;28;20471;-71
2022/08/29 13:49:32;;;;;;;5.07;1.20;;;;;;;;;;5081761;28;20568;-71
2022/08/29 13:52:00;;;;;;;1.80;1.10;;;;;;;;;;5077365;28;20539;-72
2022/08/29 13:54:29;;;;;;;1.80;1.00;;;;;;;;;;5073778;28;20492;-71
2022/08/29 13:56:58;;;;;;;2.20;1.17;;;;;;;;;;5085565;28;20471;-71
2022/08/29 13:59:34;;;;;;;2.60;1.10;;;;;;;;;;5086562;28;20896;-72
2022/08/29 14:02:02;;;;;;;2.33;0.97;;;;;;;;;;5081633;28;20806;-72
2022/08/29 14:04:34;;;;;;;2.17;0.80;;;;;;;;;;5088559;28;20491;-72
2022/08/29 14:07:03;;;;;;;2.43;1.30;;;;;;;;;;5083114;27;20455;-71
2022/08/29 14:09:38;;;;;;;2.63;1.27;;;;;;;;;;5081582;28;20562;-71
2022/08/29 14:12:06;;;;;;;5.97;1.27;;;;;;;;;;5082524;28;20546;-70
2022/08/29 14:14:34;;;;;;;2.77;1.20;;;;;;;;;;5077420;28;21132;-73
2022/08/29 14:17:04;;;;;;;8.33;4.67;;;;;;;;;;5086370;28;20456;-71
2022/08/29 14:19:32;;;;;;;3.80;1.00;;;;;;;;;;5082687;28;20471;-71
2022/08/29 14:25:03;;;;;;;2.00;1.30;;;;;;;;;;5081460;28;20533;-71
2022/08/29 14:27:31;;;;;;;3.23;1.50;;;;;;;;;;5086470;28;20474;-71
2022/08/29 14:30:03;;;;;;;2.80;1.43;;;;;;;;;;5081636;28;20455;-72
2022/08/29 14:32:32;;;;;;;5.93;2.30;;;;;;;;;;5086916;28;20480;-71
2022/08/29 14:35:03;;;;;;;1.90;0.80;;;;;;;;;;5086696;28;20474;-72
2022/08/29 14:37:34;;;;;;;3.23;0.90;;;;;;;;;;5087658;28;20495;-71
2022/08/29 14:40:05;;;;;;;3.10;1.30;;;;;;;;;;5077710;28;20467;-71
2022/08/29 14:42:34;;;;;;;3.17;0.93;;;;;;;;;;5085967;28;20466;-72
2022/08/29 14:45:03;;;;;;;3.77;0.90;;;;;;;;;;5084307;28;20944;-71
2022/08/29 14:47:34;;;;;;;3.40;1.77;;;;;;;;;;5084135;28;20957;-71
2022/08/29 14:50:02;;;;;;;4.00;2.10;;;;;;;;;;5081240;28;20902;-70
2022/08/29 14:52:30;;;;;;;3.00;1.03;;;;;;;;;;5088309;28;20976;-70
2022/08/29 14:54:58;;;;;;;2.83;0.93;;;;;;;;;;5087056;28;20489;-72
2022/08/29 14:57:26;;;;;;;3.77;1.13;;;;;;;;;;5082551;28;20478;-72
2022/08/29 14:59:56;;;;;;;3.90;1.07;;;;;;;;;;5086638;28;20908;-70
2022/08/29 15:02:23;;;;;;;3.37;1.17;;;;;;;;;;5085163;28;20447;-72
2022/08/29 15:04:53;;;;;;;3.60;0.90;;;;;;;;;;5077683;28;20496;-72
2022/08/29 15:07:24;;;;;;;1.90;0.70;;;;;;;;;;5081272;28;20457;-72
2022/08/29 15:09:52;;;;;;;4.60;0.77;;;;;;;;;;5080424;28;20550;-71
2022/08/29 15:12:23;;;;;;;2.80;0.77;;;;;;;;;;5086221;28;20772;-70